Time;durP1;ratioP1;P1;durP2;ratioP2;P2;SDS_P1;SDS_P2;PMS_P1;PMS_P2;Temp;Humidity;BMP_temperature;BMP_pressure;BME280_temperature;BME280_humidity;BME280_pressure;Samples;Min_cycle;Max_cycle;Signal;HPM_P1;HPM_P2
2024/03/31 00:01:30;;;;;;;0.30;0.30;;;10.90;99.90;;;;;;4230679;28;20047;-53
2024/03/31 00:03:31;;;;;;;0.57;0.38;;;10.80;99.90;;;;;;4247673;27;20050;-53
2024/03/31 00:05:33;;;;;;;0.75;0.55;;;10.80;99.90;;;;;;4247142;27;20043;-53
2024/03/31 00:07:34;;;;;;;0.85;0.40;;;10.80;99.90;;;;;;4246907;27;20047;-53
2024/03/31 00:09:37;;;;;;;1.13;0.30;;;10.90;99.90;;;;;;4246995;27;20392;-52
2024/03/31 00:11:39;;;;;;;1.75;0.52;;;10.90;99.90;;;;;;4246451;27;20069;-56
2024/03/31 00:13:40;;;;;;;0.30;0.30;;;10.90;99.90;;;;;;4246830;27;20492;-53
2024/03/31 00:15:41;;;;;;;1.65;0.93;;;10.90;99.90;;;;;;4246777;27;20534;-53
2024/03/31 00:17:43;;;;;;;0.77;0.30;;;10.90;99.90;;;;;;4246418;27;20057;-54
2024/03/31 00:19:44;;;;;;;1.00;0.55;;;10.90;99.90;;;;;;4246896;27;20053;-62
2024/03/31 00:21:46;;;;;;;0.63;0.55;;;10.90;99.90;;;;;;4246304;27;20058;-53
2024/03/31 00:23:47;;;;;;;0.85;0.40;;;10.90;99.90;;;;;;4247083;27;20502;-56
2024/03/31 00:25:57;;;;;;;1.90;1.20;;;10.90;99.90;;;;;;4247334;27;20058;-52
2024/03/31 00:27:58;;;;;;;0.70;0.50;;;10.90;99.90;;;;;;4229796;28;20051;-55
2024/03/31 00:30:01;;;;;;;0.47;0.47;;;11.00;99.90;;;;;;4246881;28;20047;-53
2024/03/31 00:32:03;;;;;;;0.75;0.38;;;11.00;99.90;;;;;;4246881;28;20051;-57
2024/03/31 00:34:04;;;;;;;0.55;0.38;;;10.90;99.90;;;;;;4246661;27;20054;-53
2024/03/31 00:36:09;;;;;;;0.32;0.32;;;10.90;99.90;;;;;;4247254;28;20051;-53
2024/03/31 00:38:11;;;;;;;0.50;0.40;;;10.90;99.90;;;;;;4247315;28;20549;-54
2024/03/31 00:40:13;;;;;;;1.27;0.40;;;10.90;99.90;;;;;;4246695;28;20044;-53
2024/03/31 00:42:16;;;;;;;0.40;0.40;;;10.90;99.90;;;;;;4246539;28;20061;-52
2024/03/31 00:44:17;;;;;;;0.68;0.45;;;10.90;99.90;;;;;;4247155;28;20437;-53
2024/03/31 00:46:19;;;;;;;3.28;0.95;;;10.90;99.90;;;;;;4247131;28;20057;-52
2024/03/31 00:48:20;;;;;;;0.95;0.60;;;10.80;99.90;;;;;;4246465;28;20049;-53
2024/03/31 00:50:22;;;;;;;0.43;0.40;;;10.80;99.90;;;;;;4246525;28;20047;-54
2024/03/31 00:52:23;;;;;;;0.73;0.40;;;10.80;99.90;;;;;;4246247;28;20043;-53
2024/03/31 00:54:24;;;;;;;0.85;0.63;;;10.80;99.90;;;;;;4246105;28;20388;-53
2024/03/31 00:56:26;;;;;;;0.82;0.82;;;10.70;99.90;;;;;;4246345;28;20061;-53
2024/03/31 00:58:29;;;;;;;2.65;0.70;;;10.70;99.90;;;;;;4246152;28;20045;-53
2024/03/31 01:00:32;;;;;;;0.47;0.43;;;10.60;99.90;;;;;;4246213;28;20043;-53
2024/03/31 01:02:34;;;;;;;0.60;0.60;;;10.60;99.90;;;;;;4246258;28;20047;-53
2024/03/31 01:04:36;;;;;;;0.50;0.50;;;10.60;99.90;;;;;;4246317;28;20051;-53
2024/03/31 01:06:37;;;;;;;5.65;0.65;;;10.50;99.90;;;;;;4246838;28;20052;-55
2024/03/31 01:08:39;;;;;;;0.47;0.47;;;10.60;99.90;;;;;;4246031;28;20047;-54
2024/03/31 01:10:40;;;;;;;1.95;0.52;;;10.60;99.90;;;;;;4246427;28;20039;-52
2024/03/31 01:12:43;;;;;;;2.72;0.50;;;10.50;99.90;;;;;;4246057;28;20049;-53
2024/03/31 01:14:47;;;;;;;2.88;1.30;;;10.60;99.90;;;;;;4246186;28;20049;-55
2024/03/31 01:16:48;;;;;;;0.75;0.52;;;10.70;99.90;;;;;;4246407;28;20044;-54
2024/03/31 01:18:50;;;;;;;0.55;0.55;;;10.70;99.90;;;;;;4246368;28;20061;-53
2024/03/31 01:20:52;;;;;;;0.57;0.57;;;10.70;99.90;;;;;;4246095;28;20055;-53
2024/03/31 01:22:53;;;;;;;2.05;0.50;;;10.70;99.90;;;;;;4251687;27;20495;-54
2024/03/31 01:24:56;;;;;;;0.57;0.57;;;10.60;99.90;;;;;;4229418;28;20043;-53
2024/03/31 01:26:57;;;;;;;1.38;0.40;;;10.70;99.90;;;;;;4229594;28;20057;-59
2024/03/31 01:28:59;;;;;;;1.58;0.85;;;10.80;99.90;;;;;;4229700;28;20067;-54
2024/03/31 01:31:00;;;;;;;0.70;0.60;;;10.80;99.90;;;;;;4229143;28;20500;-53
2024/03/31 01:33:02;;;;;;;0.70;0.40;;;10.80;99.90;;;;;;4229264;28;20396;-53
2024/03/31 01:35:03;;;;;;;1.65;0.75;;;10.80;99.90;;;;;;4228818;28;20051;-56
2024/03/31 01:37:05;;;;;;;0.95;0.30;;;10.80;99.90;;;;;;4212120;28;20048;-60
2024/03/31 01:39:06;;;;;;;2.40;0.45;;;10.90;99.90;;;;;;4229622;28;20047;-52
2024/03/31 01:41:09;;;;;;;0.50;0.45;;;10.90;99.90;;;;;;4229705;28;20047;-58
2024/03/31 01:43:10;;;;;;;0.55;0.50;;;10.90;99.90;;;;;;4229901;28;20116;-56
2024/03/31 01:45:12;;;;;;;1.17;0.55;;;10.90;99.90;;;;;;4231830;28;20054;-59
2024/03/31 01:47:13;;;;;;;0.25;0.22;;;11.00;99.90;;;;;;4232525;28;20052;-52
2024/03/31 01:49:15;;;;;;;0.32;0.20;;;10.90;99.90;;;;;;4232342;28;20058;-54
2024/03/31 01:51:16;;;;;;;0.22;0.15;;;11.00;99.90;;;;;;4232608;28;20070;-52
2024/03/31 01:53:18;;;;;;;0.43;0.30;;;11.00;99.90;;;;;;4231618;28;20051;-56
2024/03/31 01:55:19;;;;;;;2.30;0.98;;;11.10;99.90;;;;;;4231911;28;20040;-54
2024/03/31 01:57:22;;;;;;;0.63;0.40;;;11.00;99.90;;;;;;4232065;28;20052;-52
2024/03/31 01:59:23;;;;;;;1.17;0.75;;;11.00;99.90;;;;;;4231744;28;20047;-52
2024/03/31 02:01:25;;;;;;;2.75;0.80;;;11.00;99.90;;;;;;4231748;28;20050;-55
2024/03/31 02:03:26;;;;;;;2.75;0.70;;;11.00;99.90;;;;;;4232511;28;20055;-59
2024/03/31 02:05:28;;;;;;;0.60;0.40;;;11.10;99.90;;;;;;4232774;28;20050;-58
2024/03/31 02:07:29;;;;;;;0.20;0.20;;;11.10;99.90;;;;;;4214842;28;20047;-54
2024/03/31 02:09:30;;;;;;;0.40;0.20;;;11.20;99.90;;;;;;4232260;28;20058;-54
2024/03/31 02:11:32;;;;;;;2.17;0.60;;;11.10;99.90;;;;;;4232356;28;20093;-53
2024/03/31 02:13:35;;;;;;;0.30;0.20;;;11.20;99.90;;;;;;4231855;28;20036;-53
2024/03/31 02:15:36;;;;;;;1.50;0.40;;;11.20;99.90;;;;;;4231896;28;20044;-53
2024/03/31 02:17:38;;;;;;;1.40;0.60;;;11.10;99.90;;;;;;4231708;28;20841;-53
2024/03/31 02:19:39;;;;;;;0.77;0.40;;;11.20;99.90;;;;;;4231794;28;20061;-57
2024/03/31 02:21:41;;;;;;;0.57;0.30;;;11.20;99.90;;;;;;4232480;27;20047;-55
2024/03/31 02:23:42;;;;;;;0.50;0.38;;;11.10;99.90;;;;;;4248371;27;20065;-71
2024/03/31 02:25:43;;;;;;;0.32;0.30;;;11.20;99.90;;;;;;4232101;28;20463;-53
2024/03/31 02:27:45;;;;;;;0.30;0.20;;;11.20;99.90;;;;;;4248382;27;20405;-57
2024/03/31 02:29:48;;;;;;;10.32;2.10;;;11.20;99.90;;;;;;4248544;27;20043;-61
2024/03/31 02:31:49;;;;;;;0.30;0.30;;;11.10;99.90;;;;;;4248804;27;20106;-52
2024/03/31 02:33:50;;;;;;;1.75;0.30;;;11.20;99.90;;;;;;4248812;27;20077;-57
2024/03/31 02:35:52;;;;;;;0.30;0.30;;;11.20;99.90;;;;;;4250588;27;20043;-53
2024/03/31 02:37:53;;;;;;;1.17;0.25;;;11.20;99.90;;;;;;4231186;28;20093;-54
2024/03/31 02:39:55;;;;;;;1.48;0.20;;;11.10;99.90;;;;;;4248508;27;20043;-53
2024/03/31 02:41:56;;;;;;;0.20;0.20;;;11.10;99.90;;;;;;4248383;27;20053;-54
2024/03/31 02:43:58;;;;;;;2.05;0.30;;;11.10;99.90;;;;;;4248422;27;20047;-59
2024/03/31 02:46:01;;;;;;;0.43;0.43;;;11.10;99.90;;;;;;4248535;27;20051;-53
2024/03/31 02:48:02;;;;;;;0.15;0.15;;;11.10;99.90;;;;;;4248081;27;20061;-53
2024/03/31 02:50:04;;;;;;;0.73;0.28;;;11.10;99.90;;;;;;4248032;27;20053;-57
2024/03/31 02:52:06;;;;;;;2.75;0.50;;;11.10;99.90;;;;;;4248022;27;20047;-54
2024/03/31 02:54:07;;;;;;;1.85;0.60;;;11.00;99.90;;;;;;4248841;27;20043;-53
2024/03/31 02:56:08;;;;;;;0.30;0.30;;;11.00;99.90;;;;;;4247743;27;20046;-53
2024/03/31 02:58:10;;;;;;;1.20;0.77;;;11.00;99.90;;;;;;4248030;27;20435;-52
2024/03/31 03:00:12;;;;;;;0.17;0.17;;;11.10;99.90;;;;;;4248087;27;20048;-53
2024/03/31 03:02:15;;;;;;;0.40;0.20;;;11.00;99.90;;;;;;4247770;27;20047;-54
2024/03/31 03:04:16;;;;;;;2.38;0.32;;;10.90;99.90;;;;;;4247519;27;20403;-54
2024/03/31 03:06:17;;;;;;;1.52;0.30;;;10.90;99.90;;;;;;4247762;27;20054;-59
2024/03/31 03:08:19;;;;;;;0.45;0.30;;;10.80;99.90;;;;;;4247811;27;20053;-54
2024/03/31 03:10:20;;;;;;;1.08;0.35;;;10.90;99.90;;;;;;4231112;28;20555;-56
2024/03/31 03:12:21;;;;;;;3.25;1.63;;;10.90;99.90;;;;;;4247907;27;20047;-53
2024/03/31 03:14:23;;;;;;;0.38;0.32;;;10.90;99.90;;;;;;4248031;27;20476;-55
2024/03/31 03:16:24;;;;;;;3.83;0.30;;;10.90;99.90;;;;;;4251020;27;20092;-52
2024/03/31 03:18:27;;;;;;;1.00;0.47;;;10.90;99.90;;;;;;4247974;27;20094;-52
2024/03/31 03:20:28;;;;;;;0.35;0.35;;;10.90;99.90;;;;;;4245612;27;20047;-52
2024/03/31 03:22:30;;;;;;;1.20;0.30;;;10.90;99.90;;;;;;4231046;28;20051;-52
2024/03/31 03:24:31;;;;;;;1.88;0.47;;;10.70;99.90;;;;;;4230504;28;20388;-53
2024/03/31 03:26:33;;;;;;;0.30;0.30;;;10.60;99.90;;;;;;4230380;28;20054;-53
2024/03/31 03:28:34;;;;;;;0.50;0.30;;;10.60;99.90;;;;;;4230327;28;20054;-54
2024/03/31 03:30:37;;;;;;;1.02;0.75;;;10.60;99.90;;;;;;4230540;28;20539;-53
2024/03/31 03:32:38;;;;;;;0.32;0.30;;;10.60;99.90;;;;;;4230378;28;20501;-54
2024/03/31 03:34:41;;;;;;;0.40;0.20;;;10.60;99.90;;;;;;4230239;28;20509;-53
2024/03/31 03:36:42;;;;;;;0.60;0.43;;;10.60;99.90;;;;;;4230789;28;20074;-54
2024/03/31 03:38:46;;;;;;;1.30;0.20;;;10.60;99.90;;;;;;4213526;28;20048;-61
2024/03/31 03:40:47;;;;;;;0.75;0.75;;;10.60;99.90;;;;;;4231444;28;20089;-55
2024/03/31 03:42:49;;;;;;;0.40;0.30;;;10.60;99.90;;;;;;4231386;28;20052;-63
2024/03/31 03:44:50;;;;;;;0.70;0.35;;;10.60;99.90;;;;;;4231862;28;20381;-65
2024/03/31 03:46:51;;;;;;;0.50;0.50;;;10.60;99.90;;;;;;4235818;28;20054;-57
2024/03/31 03:48:53;;;;;;;1.70;0.70;;;10.50;99.90;;;;;;4231159;28;20428;-64
2024/03/31 03:50:56;;;;;;;3.65;0.90;;;10.50;99.90;;;;;;4214759;28;20044;-57
2024/03/31 03:52:57;;;;;;;0.35;0.13;;;10.50;99.90;;;;;;4231310;28;20047;-53
2024/03/31 03:54:59;;;;;;;0.65;0.20;;;10.50;99.90;;;;;;4230889;28;20055;-64
2024/03/31 03:57:00;;;;;;;0.40;0.30;;;10.50;99.90;;;;;;4214018;28;20374;-53
2024/03/31 03:59:02;;;;;;;0.40;0.40;;;10.60;99.90;;;;;;4230939;28;20070;-54
2024/03/31 04:01:03;;;;;;;0.93;0.40;;;10.60;99.90;;;;;;4230767;28;20047;-54
2024/03/31 04:03:05;;;;;;;2.20;0.88;;;10.50;99.90;;;;;;4230563;28;20051;-57
2024/03/31 04:05:06;;;;;;;0.57;0.43;;;10.50;99.90;;;;;;4230762;28;20048;-55
2024/03/31 04:07:09;;;;;;;1.85;0.55;;;10.50;99.90;;;;;;4230452;28;20044;-54
2024/03/31 04:09:10;;;;;;;1.02;0.85;;;10.50;99.90;;;;;;4229700;28;20055;-55
2024/03/31 04:11:12;;;;;;;1.98;0.38;;;10.50;99.90;;;;;;4230608;28;20047;-63
2024/03/31 04:13:13;;;;;;;1.73;1.00;;;10.50;99.90;;;;;;4230835;28;20046;-53
2024/03/31 04:15:15;;;;;;;2.55;0.30;;;10.50;99.90;;;;;;4230061;28;20049;-54
2024/03/31 04:17:16;;;;;;;0.80;0.50;;;10.40;99.90;;;;;;4229812;28;20051;-59
2024/03/31 04:19:18;;;;;;;1.38;1.20;;;10.40;99.90;;;;;;4231099;28;20048;-54
2024/03/31 04:21:19;;;;;;;1.27;0.93;;;10.40;99.90;;;;;;4229867;28;20055;-61
2024/03/31 04:23:22;;;;;;;0.85;0.50;;;10.40;99.90;;;;;;4230281;28;20055;-56
2024/03/31 04:25:23;;;;;;;0.40;0.32;;;10.30;99.90;;;;;;4229960;28;20061;-56
2024/03/31 04:27:25;;;;;;;1.27;0.85;;;10.20;99.90;;;;;;4230110;28;20233;-53
2024/03/31 04:29:26;;;;;;;0.20;0.20;;;10.30;99.90;;;;;;4230114;28;20039;-56
2024/03/31 04:31:27;;;;;;;0.70;0.40;;;10.30;99.90;;;;;;4229996;28;20043;-53
2024/03/31 04:33:29;;;;;;;0.88;0.80;;;10.30;99.90;;;;;;4233460;28;20043;-53
2024/03/31 04:35:34;;;;;;;0.80;0.35;;;10.20;99.90;;;;;;4230075;28;20054;-53
2024/03/31 04:37:35;;;;;;;;;;;10.20;99.90;;;;;;4230676;28;20052;-54
2024/03/31 04:39:38;;;;;;;0.60;0.52;;;10.10;99.90;;;;;;4230678;28;19920;-54
2024/03/31 04:41:40;;;;;;;1.15;0.80;;;10.10;99.90;;;;;;4230547;28;20054;-61
2024/03/31 04:43:41;;;;;;;0.57;0.30;;;10.10;99.90;;;;;;4235194;28;20086;-54
2024/03/31 04:45:42;;;;;;;1.40;0.65;;;10.10;99.90;;;;;;4229882;28;20056;-53
2024/03/31 04:47:44;;;;;;;1.20;0.30;;;10.10;99.90;;;;;;4229992;28;20043;-53
2024/03/31 04:49:46;;;;;;;1.58;0.50;;;10.10;99.90;;;;;;4230770;28;20039;-55
2024/03/31 04:51:48;;;;;;;0.50;0.30;;;10.10;99.90;;;;;;4230927;28;20047;-52
2024/03/31 04:53:49;;;;;;;1.75;0.55;;;10.10;99.90;;;;;;4213453;28;20052;-52
2024/03/31 04:55:52;;;;;;;0.68;0.50;;;10.10;99.90;;;;;;4230319;28;20047;-53
2024/03/31 04:57:53;;;;;;;0.68;0.50;;;10.10;99.90;;;;;;4230290;28;20047;-53
2024/03/31 04:59:54;;;;;;;0.73;0.50;;;10.10;99.90;;;;;;4212756;28;20490;-56
2024/03/31 05:01:56;;;;;;;3.38;1.23;;;10.10;99.90;;;;;;4229621;28;20465;-53
2024/03/31 05:03:57;;;;;;;0.32;0.32;;;10.20;99.90;;;;;;4212790;28;20048;-52
2024/03/31 05:05:59;;;;;;;3.85;0.50;;;10.10;99.90;;;;;;4229898;28;20496;-53
2024/03/31 05:08:01;;;;;;;0.45;0.45;;;10.20;99.90;;;;;;4230218;28;20055;-57
2024/03/31 05:10:03;;;;;;;0.60;0.45;;;10.10;99.90;;;;;;4229801;28;20048;-52
2024/03/31 05:12:06;;;;;;;0.88;0.40;;;10.20;99.90;;;;;;4229841;28;20047;-53
2024/03/31 05:14:08;;;;;;;1.63;0.68;;;10.10;99.90;;;;;;4229109;28;20047;-53
2024/03/31 05:16:10;;;;;;;1.08;0.77;;;10.10;99.90;;;;;;4229481;28;20051;-55
2024/03/31 05:18:16;;;;;;;0.35;0.35;;;10.10;99.90;;;;;;4229594;28;20465;-53
2024/03/31 05:20:17;;;;;;;0.88;0.52;;;10.10;99.90;;;;;;4229887;28;20515;-54
2024/03/31 05:22:19;;;;;;;1.73;0.90;;;10.20;99.90;;;;;;4232566;28;20055;-54
2024/03/31 05:24:20;;;;;;;0.77;0.43;;;10.10;99.90;;;;;;4216864;28;20040;-53
2024/03/31 05:26:21;;;;;;;4.20;0.40;;;10.20;99.90;;;;;;4232838;28;20039;-55
2024/03/31 05:28:25;;;;;;;0.60;0.60;;;10.10;99.90;;;;;;4232761;28;20061;-60
2024/03/31 05:30:26;;;;;;;3.55;0.73;;;10.10;99.90;;;;;;4233351;28;20054;-58
2024/03/31 05:32:28;;;;;;;6.60;1.75;;;10.00;99.90;;;;;;4233651;28;20062;-55
2024/03/31 05:34:29;;;;;;;1.02;0.45;;;10.10;99.90;;;;;;4233608;28;20501;-53
2024/03/31 05:36:31;;;;;;;0.98;0.35;;;10.10;99.90;;;;;;4233516;28;20089;-61
2024/03/31 05:38:32;;;;;;;0.30;0.30;;;10.10;99.90;;;;;;4233221;28;20048;-53
2024/03/31 05:40:36;;;;;;;0.28;0.22;;;10.10;99.90;;;;;;4233429;28;20052;-55
2024/03/31 05:42:38;;;;;;;0.52;0.30;;;10.10;99.90;;;;;;4233522;28;20054;-53
2024/03/31 05:44:40;;;;;;;1.17;1.08;;;10.10;99.90;;;;;;4233105;28;20062;-60
2024/03/31 05:46:42;;;;;;;0.60;0.55;;;10.20;99.90;;;;;;4216587;28;20059;-53
2024/03/31 05:48:43;;;;;;;1.38;0.55;;;10.20;99.90;;;;;;4232660;28;20052;-52
2024/03/31 05:50:45;;;;;;;25.58;1.95;;;10.20;99.90;;;;;;4232601;28;20148;-55
2024/03/31 05:52:47;;;;;;;0.60;0.40;;;10.20;99.90;;;;;;4233054;28;20093;-57
2024/03/31 05:54:48;;;;;;;0.30;0.28;;;10.20;99.90;;;;;;4233327;28;20043;-53
2024/03/31 05:56:50;;;;;;;0.43;0.43;;;10.20;99.90;;;;;;4233161;28;20065;-53
2024/03/31 05:58:51;;;;;;;1.17;0.73;;;10.20;99.90;;;;;;4232488;28;20054;-59
2024/03/31 06:00:54;;;;;;;3.92;0.95;;;10.20;99.90;;;;;;4233422;28;20043;-61
2024/03/31 06:02:56;;;;;;;4.15;1.17;;;10.20;99.90;;;;;;4233246;28;20053;-53
2024/03/31 06:04:58;;;;;;;0.32;0.30;;;10.10;99.90;;;;;;4232945;28;20456;-53
2024/03/31 06:07:00;;;;;;;0.50;0.50;;;10.10;99.90;;;;;;4232974;28;20067;-51
2024/03/31 06:09:01;;;;;;;0.68;0.32;;;10.10;99.90;;;;;;4233311;28;20056;-58
2024/03/31 06:11:04;;;;;;;1.27;0.95;;;10.10;99.90;;;;;;4233095;28;20479;-56
2024/03/31 06:13:05;;;;;;;2.85;0.80;;;10.10;99.90;;;;;;4233030;28;20051;-58
2024/03/31 06:15:07;;;;;;;1.55;0.75;;;10.00;99.90;;;;;;4232965;28;20057;-59
2024/03/31 06:17:10;;;;;;;0.75;0.40;;;10.00;99.90;;;;;;4220325;28;20432;-53
2024/03/31 06:19:12;;;;;;;7.43;1.48;;;10.00;99.90;;;;;;4232175;28;20500;-55
2024/03/31 06:21:14;;;;;;;0.73;0.40;;;10.10;99.90;;;;;;4231507;28;20056;-53
2024/03/31 06:23:16;;;;;;;0.43;0.43;;;10.10;99.90;;;;;;4231750;28;20424;-53
2024/03/31 06:25:17;;;;;;;1.05;0.45;;;10.10;99.90;;;;;;4232148;28;20388;-53
2024/03/31 06:27:19;;;;;;;0.50;0.40;;;10.10;99.90;;;;;;4231706;28;20497;-52
2024/03/31 06:29:20;;;;;;;1.65;1.15;;;10.10;99.90;;;;;;4232215;28;20060;-54
2024/03/31 06:31:22;;;;;;;2.10;0.40;;;10.10;99.90;;;;;;4232863;28;20054;-54
2024/03/31 06:33:26;;;;;;;3.20;0.75;;;10.10;99.90;;;;;;4232040;28;20043;-53
2024/03/31 06:35:27;;;;;;;0.40;0.40;;;10.10;99.90;;;;;;4232126;28;20070;-53
2024/03/31 06:37:29;;;;;;;0.70;0.50;;;10.20;99.90;;;;;;4231811;28;20043;-58
2024/03/31 06:39:30;;;;;;;0.63;0.47;;;10.10;99.90;;;;;;4231877;28;20059;-52
2024/03/31 06:41:31;;;;;;;5.03;1.25;;;10.10;99.90;;;;;;4231768;28;20050;-53
2024/03/31 06:43:34;;;;;;;0.77;0.50;;;10.10;99.90;;;;;;4231812;28;20054;-52
2024/03/31 06:45:35;;;;;;;0.57;0.32;;;10.20;99.90;;;;;;4231790;28;20047;-52
2024/03/31 06:47:37;;;;;;;1.23;0.75;;;10.30;99.90;;;;;;4230997;28;20055;-52
2024/03/31 06:49:39;;;;;;;1.02;0.40;;;10.40;99.90;;;;;;4230992;28;20082;-53
2024/03/31 06:51:41;;;;;;;1.30;0.38;;;10.50;99.90;;;;;;4231197;28;20501;-53
2024/03/31 06:53:42;;;;;;;0.85;0.65;;;10.50;99.90;;;;;;4231721;28;20053;-53
2024/03/31 06:55:44;;;;;;;0.98;0.40;;;10.60;99.90;;;;;;4231473;28;20515;-53
2024/03/31 06:57:45;;;;;;;0.50;0.35;;;10.70;99.90;;;;;;4230964;28;20528;-53
2024/03/31 06:59:46;;;;;;;4.22;1.05;;;10.80;99.90;;;;;;4231011;28;20048;-53
2024/03/31 07:01:48;;;;;;;2.40;0.75;;;10.90;99.90;;;;;;4231113;28;20101;-54
2024/03/31 07:03:49;;;;;;;0.60;0.60;;;11.00;99.90;;;;;;4231060;28;20113;-54
2024/03/31 07:05:52;;;;;;;4.15;1.95;;;11.00;99.90;;;;;;4230831;28;20052;-53
2024/03/31 07:07:54;;;;;;;1.67;0.30;;;11.10;99.90;;;;;;4231127;28;20043;-56
2024/03/31 07:09:55;;;;;;;2.05;0.63;;;11.10;99.90;;;;;;4230863;28;20048;-53
2024/03/31 07:11:56;;;;;;;0.95;0.60;;;11.20;99.90;;;;;;4230776;28;20058;-53
2024/03/31 07:13:59;;;;;;;0.35;0.30;;;11.20;99.90;;;;;;4230729;28;20427;-53
2024/03/31 07:16:00;;;;;;;1.60;1.10;;;11.30;99.90;;;;;;4230833;28;20059;-53
2024/03/31 07:18:06;;;;;;;0.45;0.35;;;11.30;99.90;;;;;;4231254;28;20047;-53
2024/03/31 07:20:08;;;;;;;1.02;0.38;;;11.50;99.90;;;;;;4230719;28;20096;-53
2024/03/31 07:22:11;;;;;;;0.77;0.40;;;11.50;99.90;;;;;;4230481;28;20414;-54
2024/03/31 07:24:12;;;;;;;8.45;1.27;;;11.60;99.90;;;;;;4230487;28;20055;-57
2024/03/31 07:26:14;;;;;;;8.00;1.40;;;11.50;99.90;;;;;;4229984;28;20051;-54
2024/03/31 07:28:15;;;;;;;0.80;0.35;;;11.70;99.90;;;;;;4229954;28;20055;-52
2024/03/31 07:30:17;;;;;;;2.70;1.10;;;11.70;99.90;;;;;;4230274;28;20058;-51
2024/03/31 07:32:18;;;;;;;1.63;1.00;;;11.70;99.90;;;;;;4230379;28;20044;-53
2024/03/31 07:34:19;;;;;;;2.33;0.82;;;11.90;99.90;;;;;;4231568;28;20054;-66
2024/03/31 07:36:21;;;;;;;3.10;0.50;;;12.00;99.90;;;;;;4231521;28;20052;-54
2024/03/31 07:38:24;;;;;;;2.95;0.50;;;12.20;99.90;;;;;;4214782;28;20060;-61
2024/03/31 07:40:25;;;;;;;0.75;0.30;;;12.50;99.90;;;;;;4230451;28;20048;-52
2024/03/31 07:42:26;;;;;;;1.58;0.55;;;12.70;99.60;;;;;;4230490;28;20048;-53
2024/03/31 07:44:28;;;;;;;4.72;1.67;;;13.00;99.40;;;;;;4212472;28;20070;-58
2024/03/31 07:46:29;;;;;;;3.95;2.35;;;13.20;98.50;;;;;;4230423;28;20065;-59
2024/03/31 07:48:31;;;;;;;0.35;0.20;;;13.30;98.30;;;;;;4230486;28;20055;-53
2024/03/31 07:50:32;;;;;;;2.95;0.38;;;13.70;98.70;;;;;;4230216;28;20121;-55
2024/03/31 07:52:35;;;;;;;1.45;0.35;;;14.00;97.70;;;;;;4229800;28;20110;-52
2024/03/31 07:54:38;;;;;;;0.38;0.20;;;14.30;97.10;;;;;;4229508;28;20481;-51
2024/03/31 07:56:39;;;;;;;1.70;0.63;;;14.70;95.70;;;;;;4229620;28;20043;-52
2024/03/31 07:58:41;;;;;;;2.30;0.28;;;15.00;95.50;;;;;;4230338;28;20055;-53
2024/03/31 08:00:42;;;;;;;2.35;0.80;;;15.40;95.00;;;;;;4230027;28;20047;-53
2024/03/31 08:02:43;;;;;;;1.00;0.20;;;15.70;94.80;;;;;;4229805;28;20469;-53
2024/03/31 08:04:45;;;;;;;0.40;0.40;;;15.80;93.80;;;;;;4229609;28;20044;-53
2024/03/31 08:06:46;;;;;;;0.43;0.30;;;16.00;94.40;;;;;;4229565;28;20093;-55
2024/03/31 08:08:48;;;;;;;5.63;0.30;;;16.10;93.50;;;;;;4229410;28;20505;-54
2024/03/31 08:10:50;;;;;;;3.30;1.15;;;16.40;92.90;;;;;;4229661;28;20047;-52
2024/03/31 08:12:53;;;;;;;0.55;0.30;;;16.70;92.50;;;;;;4229500;28;20043;-53
2024/03/31 08:14:54;;;;;;;0.25;0.20;;;16.30;92.80;;;;;;4229931;28;20058;-53
2024/03/31 08:16:56;;;;;;;0.30;0.30;;;16.50;91.90;;;;;;4229761;28;20051;-54
2024/03/31 08:18:59;;;;;;;2.17;1.15;;;16.80;92.90;;;;;;4229738;28;20055;-54
2024/03/31 08:21:00;;;;;;;0.52;0.45;;;17.10;91.30;;;;;;4231578;27;20055;-55
2024/03/31 08:23:02;;;;;;;1.42;0.50;;;17.30;92.00;;;;;;4229911;28;20070;-53
2024/03/31 08:25:04;;;;;;;0.68;0.57;;;17.50;92.50;;;;;;4229602;28;20542;-60
2024/03/31 08:27:09;;;;;;;1.30;0.50;;;17.30;90.70;;;;;;4229470;28;20165;-53
2024/03/31 08:29:10;;;;;;;0.35;0.35;;;17.50;91.80;;;;;;4229157;28;20056;-54
2024/03/31 08:31:12;;;;;;;1.92;0.65;;;17.40;91.90;;;;;;4229604;28;20550;-53
2024/03/31 08:33:13;;;;;;;2.70;0.30;;;17.30;91.60;;;;;;4229665;28;20051;-53
2024/03/31 08:35:14;;;;;;;2.70;1.33;;;17.10;91.40;;;;;;4230592;28;20055;-54
2024/03/31 08:37:16;;;;;;;0.57;0.20;;;16.80;91.90;;;;;;4213299;28;20044;-53
2024/03/31 08:39:18;;;;;;;1.23;0.60;;;16.70;91.60;;;;;;4234503;28;20054;-53
2024/03/31 08:41:30;;;;;;;0.98;0.35;;;16.60;91.90;;;;;;4229754;28;20055;-55
2024/03/31 08:43:36;;;;;;;0.30;0.20;;;16.40;92.20;;;;;;4230573;28;20056;-61
2024/03/31 08:45:38;;;;;;;0.70;0.22;;;16.60;93.20;;;;;;4230545;28;20055;-53
2024/03/31 08:47:44;;;;;;;1.10;0.20;;;16.70;92.60;;;;;;4229689;28;20052;-54
2024/03/31 08:49:45;;;;;;;0.70;0.65;;;16.40;92.30;;;;;;4229249;28;20048;-53
2024/03/31 08:51:48;;;;;;;2.70;0.15;;;16.30;92.70;;;;;;4229581;28;20513;-53
2024/03/31 08:53:51;;;;;;;2.28;0.55;;;16.30;92.40;;;;;;4233609;28;20047;-53
2024/03/31 08:55:53;;;;;;;0.22;0.22;;;16.20;93.10;;;;;;4232469;28;20048;-56
2024/03/31 08:57:54;;;;;;;0.98;0.10;;;16.30;93.30;;;;;;4232787;28;20047;-53
2024/03/31 08:59:57;;;;;;;2.70;1.17;;;16.00;92.60;;;;;;4232621;28;20074;-53
2024/03/31 09:02:00;;;;;;;0.43;0.10;;;15.90;93.30;;;;;;4233271;28;20357;-52
2024/03/31 09:04:02;;;;;;;0.85;0.45;;;15.90;93.60;;;;;;4232969;28;20050;-53
2024/03/31 09:06:03;;;;;;;0.00;0.00;;;16.00;93.40;;;;;;4234226;28;20511;-53
2024/03/31 09:08:06;;;;;;;0.50;0.25;;;15.80;93.30;;;;;;4238415;28;20058;-52
2024/03/31 09:10:08;;;;;;;0.73;0.73;;;15.70;93.50;;;;;;4232958;28;20056;-51
2024/03/31 09:12:10;;;;;;;0.55;0.13;;;15.70;93.60;;;;;;4232606;28;20054;-52
2024/03/31 09:14:11;;;;;;;8.07;0.17;;;15.60;93.60;;;;;;4233413;28;20054;-53
2024/03/31 09:16:14;;;;;;;0.30;0.20;;;15.70;93.90;;;;;;4232997;28;20046;-54
2024/03/31 09:18:16;;;;;;;0.52;0.20;;;15.90;93.70;;;;;;4216278;28;20052;-53
2024/03/31 09:20:17;;;;;;;0.45;0.38;;;15.90;94.10;;;;;;4233279;28;20051;-62
2024/03/31 09:22:18;;;;;;;0.80;0.40;;;15.90;94.00;;;;;;4232488;28;20058;-55
2024/03/31 09:24:21;;;;;;;1.73;0.20;;;15.90;93.90;;;;;;4232980;28;20043;-60
2024/03/31 09:26:22;;;;;;;0.63;0.47;;;15.90;93.50;;;;;;4232693;28;20043;-53
2024/03/31 09:28:24;;;;;;;1.05;0.90;;;16.00;93.90;;;;;;4233108;28;20519;-53
2024/03/31 09:30:28;;;;;;;3.28;0.80;;;16.10;93.30;;;;;;4233149;28;20121;-53
2024/03/31 09:32:31;;;;;;;1.15;0.50;;;16.20;93.60;;;;;;4232233;28;20043;-54
2024/03/31 09:34:32;;;;;;;1.35;0.82;;;16.20;93.80;;;;;;4232222;28;20504;-52
2024/03/31 09:36:36;;;;;;;0.00;0.00;;;16.10;93.30;;;;;;4232227;28;20047;-53
2024/03/31 09:38:38;;;;;;;0.75;0.52;;;16.10;94.00;;;;;;4232233;28;20097;-51
2024/03/31 09:40:40;;;;;;;0.00;0.00;;;16.00;93.40;;;;;;4232517;28;20047;-54
2024/03/31 09:42:42;;;;;;;0.63;0.45;;;16.00;93.80;;;;;;4233152;28;20469;-56
2024/03/31 09:44:44;;;;;;;0.55;0.22;;;16.00;93.40;;;;;;4233022;28;20051;-53
2024/03/31 09:46:48;;;;;;;0.00;0.00;;;16.10;93.30;;;;;;4215925;28;20425;-57
2024/03/31 09:48:56;;;;;;;0.35;0.22;;;16.00;93.30;;;;;;4232715;28;20043;-60
2024/03/31 09:51:02;;;;;;;0.00;0.00;;;16.10;93.60;;;;;;4233162;28;20555;-54
2024/03/31 09:53:05;;;;;;;0.10;0.10;;;16.10;93.20;;;;;;4233003;28;20058;-54
2024/03/31 09:55:10;;;;;;;0.10;0.10;;;16.20;93.20;;;;;;4232189;28;20040;-56
2024/03/31 09:57:13;;;;;;;;;;;16.30;92.70;;;;;;4233241;28;20051;-54
2024/03/31 09:59:17;;;;;;;0.00;0.00;;;16.30;92.40;;;;;;4232438;28;19926;-53
2024/03/31 10:01:20;;;;;;;0.03;0.03;;;16.40;93.10;;;;;;4232738;28;20044;-55
2024/03/31 10:03:25;;;;;;;0.00;0.00;;;16.40;92.70;;;;;;4232475;28;20048;-55
2024/03/31 10:05:32;;;;;;;0.00;0.00;;;16.40;92.50;;;;;;4215255;28;20044;-61
2024/03/31 10:07:35;;;;;;;0.00;0.00;;;16.40;92.30;;;;;;4231439;28;20047;-53
2024/03/31 10:09:37;;;;;;;0.22;0.10;;;16.40;93.20;;;;;;4231945;28;20056;-53
2024/03/31 10:11:39;;;;;;;0.00;0.00;;;16.30;92.40;;;;;;4232549;28;20047;-51
2024/03/31 10:13:42;;;;;;;0.77;0.68;;;16.40;93.30;;;;;;4232151;28;20052;-52
2024/03/31 10:15:45;;;;;;;2.17;0.10;;;16.40;93.10;;;;;;4231624;28;20058;-54
2024/03/31 10:17:49;;;;;;;0.40;0.20;;;16.60;92.90;;;;;;4232191;28;20055;-55
2024/03/31 10:19:52;;;;;;;0.08;0.08;;;16.60;92.60;;;;;;4232268;28;20066;-54
2024/03/31 10:21:57;;;;;;;0.50;0.50;;;16.60;93.00;;;;;;4231849;28;20070;-54
2024/03/31 10:24:00;;;;;;;0.57;0.40;;;16.60;92.80;;;;;;4232151;28;20048;-55
2024/03/31 10:26:02;;;;;;;0.20;0.10;;;16.50;92.80;;;;;;4231726;28;20048;-53
2024/03/31 10:28:05;;;;;;;0.10;0.10;;;16.60;92.70;;;;;;4231778;28;20039;-57
2024/03/31 10:30:08;;;;;;;0.10;0.10;;;16.50;92.50;;;;;;4231569;28;20040;-53
2024/03/31 10:32:09;;;;;;;0.10;0.10;;;16.50;92.90;;;;;;4231457;28;20047;-51
2024/03/31 10:34:11;;;;;;;0.60;0.10;;;16.50;93.10;;;;;;4231438;28;20058;-53
2024/03/31 10:36:14;;;;;;;0.45;0.10;;;16.70;93.00;;;;;;4231192;28;20051;-53